Friday, May 25, 2018, 8:40 AM EDT
Back to Local

KRUT, Rutland, Rutland-southern Vermont Regional Airport

Location: North Clarendon, VT, United States Lat: 43.533
Local Time: 8:40 AM EDT (12:40 GMT) Lon: -72.95
Time Zone: US/Eastern Elev: 787 ft

Show me the last for .
Show Decoded

2018-05-25 07:56 METAR KRUT 251156Z AUTO 09003KT 10SM CLR 19/11 A2995 RMK AO2 SLP152 T01890106
                 10189 20106 58006 $ =
2018-05-25 06:56 METAR KRUT 251056Z AUTO 12004KT 10SM SCT080 13/09 A2996 RMK AO2 SLP159 T01330089
                 $ =
2018-05-25 05:56 METAR KRUT 250956Z AUTO 12005KT 10SM CLR 11/08 A2997 RMK AO2 SLP162 T01110078 $
                 =
2018-05-25 04:56 METAR KRUT 250856Z AUTO 15004KT 10SM CLR 11/08 A2997 RMK AO2 SLP163 T01060078
                 56007 $ =
2018-05-25 03:56 METAR KRUT 250756Z AUTO 00000KT 10SM CLR 12/08 A2997 RMK AO2 SLP164 T01170078 $
                 =
2018-05-25 02:56 METAR KRUT 250656Z AUTO 10004KT 10SM CLR 12/08 A2998 RMK AO2 SLP167 T01220078 $
                 =
2018-05-25 01:56 METAR KRUT 250556Z AUTO 11006KT 10SM CLR 14/07 A2999 RMK AO2 SLP171 T01390072
                 10217 20133 56014 $ =
2018-05-25 00:56 METAR KRUT 250456Z AUTO 11008KT 10SM CLR 14/07 A3000 RMK AO2 SLP175 T01440072
                 402390050 $ =
2018-05-24 23:56 METAR KRUT 250356Z AUTO 11007KT 10SM CLR 14/08 A3002 RMK AO2 SLP181 T01440078 $
                 =
2018-05-24 22:56 METAR KRUT 250256Z AUTO 09004KT 10SM CLR 15/08 A3003 RMK AO2 SLP187 T01500078
                 53001 $ =
2018-05-24 21:56 METAR KRUT 250156Z AUTO 12006KT 10SM CLR 16/08 A3003 RMK AO2 SLP187 T01560078 $
                 =
2018-05-24 20:56 METAR KRUT 250056Z AUTO 12007KT 10SM CLR 18/07 A3002 RMK AO2 SLP184 T01780067 $
                 =
2018-05-24 19:56 METAR KRUT 242356Z AUTO 00000KT 10SM CLR 22/04 A3003 RMK AO2 SLP185 T02170044
                 10239 20194 55008 $ =
2018-05-24 18:56 METAR KRUT 242256Z AUTO 22006KT 10SM CLR 23/03 A3003 RMK AO2 SLP185 T02330028 $
                 =
2018-05-24 17:56 METAR KRUT 242156Z AUTO 32003KT 10SM CLR 24/03 A3004 RMK AO2 SLP189 T02390033 $
                 =
2018-05-24 16:56 METAR KRUT 242056Z AUTO 00000KT 10SM CLR 23/02 A3005 RMK AO2 SLP196 T02280017
                 56024 $ =
2018-05-24 15:56 METAR KRUT 241956Z AUTO 02003KT 10SM CLR 22/03 A3008 RMK AO2 SLP203 T02220028 $
                 =
2018-05-24 14:56 METAR KRUT 241856Z AUTO VRB04KT 10SM CLR 21/01 A3010 RMK AO2 SLP212 T02060006 $
                 =
2018-05-24 13:56 METAR KRUT 241756Z AUTO VRB03KT 10SM CLR 19/00 A3013 RMK AO2 SLP221 T01940000
                 10194 20117 58012 $ =
2018-05-24 12:56 METAR KRUT 241656Z AUTO 01008KT 10SM CLR 18/00 A3014 RMK AO2 SLP227 T01830000 $
                 =
2018-05-24 11:56 METAR KRUT 241556Z AUTO 34007KT 7SM CLR 17/M01 A3016 RMK AO2 SLP234 T01721011 $
                 =
2018-05-24 10:56 METAR KRUT 241456Z AUTO 36013G17KT 10SM CLR 16/M04 A3016 RMK AO2 SLP233
                 T01611039 53003 $ =
2018-05-24 09:56 METAR KRUT 241356Z AUTO 35007KT 320V020 10SM CLR 16/00 A3016 RMK AO2 SLP229
                 T01560000 $ =
2018-05-24 08:56 METAR KRUT 241256Z AUTO 32008KT 10SM CLR 14/01 A3016 RMK AO2 SLP229 T01390006 $
                 =

Support USWX by starting your Amazon purchase here.